Blue Oak Ranch Reserve, California Weather observations

Data are for 10 minute period ending at time listed.
 Day   Time   Solar   Ave.   Ave.  Ave.  Vector  Max.   Baro.   Total    
  of    of     Rad.   Air    Rel.  Wind   Wind   Wind  Press.  Precip.   
Year   Day            Temp.  Hum.  Speed  Dir.   Gust                    
2014   (PST)  Kw/m2    F      %     mph   deg.    mph    mb.     in.     
-------------------------------------------------------------------------
 326   14:10   0.09   55.6    95    6.2   294     9.8   951.8    0.01 
 326   14:20   0.06   55.6    94    7.0   283    11.2   951.7    0.00 
 326   14:30   0.09   55.6    95    8.0   291    11.8   951.8    0.00 
 326   14:40   0.08   55.5    95    7.3   296    12.1   952.2    0.00 
 326   14:50   0.07   55.6    94    6.5   288    11.4   952.3    0.00 
 326   15:00   0.10   55.6    94    7.4   290    12.8   952.3    0.00 
 326   15:10   0.13   55.6    94    6.6   286    11.8   952.2    0.00 
 326   15:20   0.11   55.9    93    5.1   285    10.4   952.3    0.00 
 326   15:30   0.08   55.8    92    6.3   287    11.3   952.4    0.00 
 326   15:40   0.12   55.5    90    5.8   293     9.3   952.4    0.00 
 326   15:50   0.15   56.0    88    5.2   283    11.2   952.1    0.00 
 326   16:00   0.08   55.3    83    6.6   290    11.8   952.2    0.00 
 326   16:10   0.05   54.3    85    4.6   289     9.0   952.0    0.00 
 326   16:20   0.04   53.8    87    4.2   288     8.9   952.2    0.00 
 326   16:30   0.03   53.5    90    4.9   293    11.2   952.4    0.00 
 326   16:40   0.03   53.3    91    3.9   300     6.9   952.4    0.00 
 326   16:50   0.01   53.6    92    4.1   327     9.4   952.7    0.00 
 326   17:00   0.01   53.9    92    3.7   289     9.6   952.6    0.00 
 326   17:10   0.00   53.9    92    5.0   291     9.4   952.5    0.00 
 326   17:20   0.00   53.6    93    4.3   309     8.5   952.7    0.00 
 326   17:30   0.00   53.6    93    2.9   281     6.9   952.7    0.00 
 326   17:40   0.00   53.3    93    3.8   281     7.7   952.7    0.00 
 326   17:50   0.00   53.1    93    3.4   290     5.3   952.7    0.00 
 326   18:00   0.00   52.9    94    2.8   291     5.8   952.9    0.00 
 326   18:10   0.00   52.4    93    1.4   314     2.9   953.0    0.00 
 326   18:20   0.00   51.3    93    1.1   348     2.2   953.1    0.00 
 326   18:30   0.00   50.1    94    0.5    50     1.8   953.2    0.00 
 326   18:40   0.00   49.3    94    0.9    44     2.1   953.3    0.00 
 326   18:50   0.00   48.6    94    0.4   352     2.0   953.5    0.00 
 326   19:00   0.00   48.1    94    1.0     5     1.8   953.7    0.00 
 326   19:10   0.00   48.0    95    0.7    49     2.1   953.9    0.00 
 326   19:20   0.00   48.3    95    1.4     3     5.4   954.0    0.00 
 326   19:30   0.00   49.5    95    3.3   357    10.2   953.9    0.00 
 326   19:40   0.00   50.6    92    2.3   353     4.5   953.9    0.00 
 326   19:50   0.00   50.8    90    2.3     8     4.1   954.1    0.00 
 326   20:00   0.00   50.4    89    2.3    20     4.7   954.3    0.00 
 326   20:10   0.00   50.4    88    2.9   340     7.0   954.3    0.00 
 326   20:20   0.00   50.6    86    2.6   324     6.6   954.4    0.00 
 326   20:30   0.00   50.8    83    4.7   340     8.8   954.5    0.00 
 326   20:40   0.00   51.0    81    2.3   354     5.4   954.3    0.00 
 326   20:50   0.00   50.5    82    1.5   343     3.4   954.4    0.00 
 326   21:00   0.00   48.8    86    1.3   351     4.4   954.4    0.00 
 326   21:10   0.00   48.1    87    1.9   339     4.1   954.5    0.00 
 326   21:20   0.00   47.5    89    2.1   313     5.0   954.6    0.00 
 326   21:30   0.00   48.5    87    2.7   309     4.0   954.8    0.00 
 326   21:40   0.00   47.2    87    0.4   209     1.9   954.9    0.00 
 326   21:50   0.00   45.8    90    0.2   126     1.1   955.0    0.00 
 326   22:00   0.00   44.8    92    0.9    87     2.3   955.2    0.00 
 326   22:10   0.00   44.6    93    1.0    59     2.5   955.3    0.00 
 326   22:20   0.00   44.0    94    0.6    62     2.4   955.3    0.00 
 326   22:30   0.00   44.2    94    1.6    49     3.1   955.4    0.00 
 326   22:40   0.00   44.9    95    1.6    41     2.6   955.5    0.00 
 326   22:50   0.00   44.8    95    1.1    45     1.9   955.4    0.00 
 326   23:00   0.00   44.9    95    0.7    16     1.8   955.5    0.00 
 326   23:10   0.00   43.6    95    1.7   308     2.8   955.5    0.00 
 326   23:20   0.00   43.5    96    0.9   295     1.9   955.6    0.00 
 326   23:30   0.00   43.0    96    0.9   290     2.3   955.6    0.00 
 326   23:40   0.00   42.3    96    0.6   298     2.1   955.6    0.00 
 326   23:50   0.00   42.2    96    0.5   305     1.3   955.6    0.00 
 327    0:00   0.00   41.8    96    0.7   297     3.2   955.5    0.00 
 327    0:10   0.00   41.9    96    1.8   318     3.5   955.6    0.00 
 327    0:20   0.00   42.4    96    2.0   316     4.2   955.6    0.00 
 327    0:30   0.00   42.0    96    1.9   321     3.9   955.5    0.00 
 327    0:40   0.00   43.2    96    2.2     6     6.1   955.4    0.00 
 327    0:50   0.00   44.5    92    4.9    38    12.0   955.5    0.00 
 327    1:00   0.00   46.2    85    5.2    53     9.5   955.5    0.00 
 327    1:10   0.00   47.0    81    4.4    63     8.0   955.5    0.00 
 327    1:20   0.00   47.1    80    5.4    68    14.0   955.4    0.00 
 327    1:30   0.00   47.1    81    3.9    65    10.7   955.4    0.00 
 327    1:40   0.00   47.2    80    5.0    69    12.3   955.4    0.00 
 327    1:50   0.00   47.0    80    5.0    62    11.5   955.4    0.00 
 327    2:00   0.00   47.2    78    2.8    56     5.6   955.3    0.00 
 327    2:10   0.00   48.1    73    3.4    25     9.9   955.3    0.00 
 327    2:20   0.00   48.8    70    4.2    50     9.9   955.3    0.00 
 327    2:30   0.00   48.1    72    1.7    56     7.6   955.2    0.00 
 327    2:40   0.00   47.7    72    3.9    36    11.6   955.4    0.00 
 327    2:50   0.00   48.3    70    4.3   336     7.9   955.7    0.00 
 327    3:00   0.00   46.7    76    2.0   355     6.9   955.6    0.00 
 327    3:10   0.00   45.7    78    2.6   334     5.5   955.8    0.00 
 327    3:20   0.00   43.4    84    2.3    18     5.0   955.7    0.00 
 327    3:30   0.00   42.1    86    3.1   337     5.1   955.7    0.00 
 327    3:40   0.00   41.7    87    1.3   332     5.0   955.5    0.00 
 327    3:50   0.00   41.5    88    1.8   319     5.1   955.7    0.00 
 327    4:00   0.00   42.2    84    2.7   357     8.6   955.8    0.00 
 327    4:10   0.00   42.0    83    1.8   320     5.8   955.7    0.00 
 327    4:20   0.00   41.3    86    1.3   284     3.6   955.7    0.00 
 327    4:30   0.00   39.8    88    3.8   304     6.0   955.8    0.00 
 327    4:40   0.00   40.0    90    1.9   348     4.1   955.7    0.00 
 327    4:50   0.00   41.0    86    2.7   291     6.5   955.8    0.00 
 327    5:00   0.00   41.4    84    1.0   215     2.1   956.0    0.00 
 327    5:10   0.00   41.0    85    1.1    76     2.6   956.0    0.00 
 327    5:20   0.00   40.7    85    1.3    19     2.2   956.0    0.00 
 327    5:30   0.00   39.6    87    1.8    78     3.4   956.4    0.00 
 327    5:40   0.00   39.5    90    1.7    66     3.9   956.2    0.00 
 327    5:50   0.00   40.9    88    1.0    41     2.3   956.3    0.00 
 327    6:00   0.00   40.2    89    2.2    36     4.2   956.4    0.00 
 327    6:10   0.00   40.2    90    1.9   348     3.4   956.4    0.00 
 327    6:20   0.00   39.6    90    1.5    30     2.5   956.6    0.00 
 327    6:30   0.00   40.3    88    3.4   354     7.7   956.7    0.00 
 327    6:40   0.00   41.9    78    2.1   162     5.0   957.0    0.00 
 327    6:50   0.01   40.1    87    2.6    48     4.3   957.0    0.00 
 327    7:00   0.01   39.3    87    2.3   350     5.2   956.9    0.00 
 327    7:10   0.01   39.3    88    2.3    70     4.7   956.5    0.00 
 327    7:20   0.01   38.7    88    0.4    78     2.3   956.5    0.00 
 327    7:30   0.03   39.0    89    1.9     4     4.2   956.6    0.00 
 327    7:40   0.04   39.2    89    2.9   318     6.3   956.6    0.00 
 327    7:50   0.11   41.3    86    4.2   300     5.8   957.0    0.00 
 327    8:00   0.14   43.4    82    2.0   290     3.9   957.3    0.00 
 327    8:10   0.17   45.7    78    1.5    82     4.5   957.5    0.00 
 327    8:20   0.19   47.0    75    1.5   128     3.2   957.2    0.00 
 327    8:30   0.22   49.3    70    1.9   103     3.7   957.2    0.00 
 327    8:40   0.22   50.9    68    1.5   100     3.4   957.2    0.00 
 327    8:50   0.23   51.8    64    0.8   147     2.2   957.2    0.00 
 327    9:00   0.30   52.7    63    1.4   275     4.7   957.4    0.00 
 327    9:10   0.32   54.6    58    3.4   267     7.7   957.5    0.00 
 327    9:20   0.34   54.2    57    3.5   282     5.9   957.3    0.00 
 327    9:30   0.37   55.2    58    2.1   292     5.1   957.2    0.00 
 327    9:40   0.38   57.0    52    0.7   154     2.0   957.1    0.00 
 327    9:50   0.41   58.3    52    2.9   212     6.4   957.3    0.00 
 327   10:00   0.44   57.9    55    3.6   236     6.6   957.6    0.00 
 327   10:10   0.48   57.8    51    5.7   276     9.6   957.8    0.00 
 327   10:20   0.38   57.2    50    6.4   282     9.2   957.8    0.00 
 327   10:30   0.47   58.2    46    6.0   281     9.6   957.7    0.00 
 327   10:40   0.51   58.9    44    9.0   285    11.8   957.7    0.00 
 327   10:50   0.55   58.7    47    6.9   282    10.7   957.6    0.00 
 327   11:00   0.39   58.7    46    6.5   284     9.6   957.5    0.00 
 327   11:10   0.28   57.3    59    7.1   264    14.5   957.8    0.00 
 327   11:20   0.41   54.9    72    4.3   252     7.7   957.6    0.00 
 327   11:30   0.58   57.0    55    8.2   286    12.3   957.6    0.00 
 327   11:40   0.49   57.5    52    8.8   288    13.4   957.3    0.00 
 327   11:50   0.60   57.5    52    8.7   283    12.2   957.0    0.00 
 327   12:00   0.36   57.3    51   10.2   288    13.5   957.0    0.00 
 327   12:10   0.37   57.0    49    8.1   274    12.8   957.0    0.00 
 327   12:20   0.53   58.2    57    6.0   249    10.6   956.9    0.00 
 327   12:30   0.43   58.2    58    6.3   278    10.6   956.9    0.00 
 327   12:40   0.33   57.1    49    8.0   280    10.2   956.8    0.00 
 327   12:50   0.45   57.6    50    7.6   279    11.0   956.7    0.00 
 327   13:00   0.43   58.1    46    8.1   278    11.7   956.7    0.00 
 327   13:10   0.45   58.2    44    7.6   270    11.5   956.7    0.00 
 327   13:20   0.44   59.3    46    7.7   270    11.2   956.6    0.00 
 327   13:30   0.44   59.0    50    5.9   257    10.2   956.4    0.00 
 327   13:40   0.39   59.3    54    4.8   258     7.2   956.4    0.00 
 327   13:50   0.35   59.0    42    5.8   282     8.0   956.4    0.00 
 327   14:00   0.34   59.5    52    3.7   244     6.7   956.4    0.00 

Return to Blue Oak Ranch Reserve graphs page.


Western Regional Climate Center,wrcc@dri.edu